createdAt,value
2023-05-08T00:02:24.408Z,101755.91
2023-05-08T00:04:52.746Z,101761.97
2023-05-08T00:07:20.649Z,101764.44
2023-05-08T00:09:48.590Z,101756.56
2023-05-08T00:12:16.928Z,101759.09
2023-05-08T00:14:44.960Z,101760.78
2023-05-08T00:17:13.036Z,101759.94
2023-05-08T00:19:41.427Z,101765.13
2023-05-08T00:22:09.301Z,101772.06
2023-05-08T00:24:37.388Z,101770.38
2023-05-08T00:27:05.913Z,101766.97
2023-05-08T00:29:34.523Z,101771.31
2023-05-08T00:32:02.717Z,101773.13
2023-05-08T00:34:30.959Z,101772.22
2023-05-08T00:36:59.027Z,101775.66
2023-05-08T00:39:27.136Z,101773.13
2023-05-08T00:41:55.800Z,101780.91
2023-05-08T00:44:23.607Z,101778.31
2023-05-08T00:46:51.784Z,101783.47
2023-05-08T00:49:20.859Z,101783.44
2023-05-08T00:51:51.694Z,101781.69
2023-05-08T00:54:20.784Z,101782.59
2023-05-08T00:56:51.146Z,101780.00
2023-05-08T00:59:22.615Z,101780.03
2023-05-08T01:01:52.564Z,101780.84
2023-05-08T01:04:23.522Z,101774.84
2023-05-08T01:06:51.726Z,101785.19
2023-05-08T01:09:19.605Z,101785.16
2023-05-08T01:12:23.547Z,101787.75
2023-05-08T01:15:03.829Z,101780.88
2023-05-08T01:18:13.578Z,101787.56
2023-05-08T01:21:01.480Z,101792.78
2023-05-08T01:23:48.278Z,101787.50
2023-05-08T01:27:03.684Z,101789.19
2023-05-08T01:29:53.158Z,101797.66
2023-05-08T01:32:43.310Z,101800.22
2023-05-08T01:35:35.014Z,101806.19
2023-05-08T01:38:48.137Z,101798.59
2023-05-08T01:41:30.984Z,101805.50
2023-05-08T01:44:25.839Z,101809.03
2023-05-08T01:46:56.677Z,101812.59
2023-05-08T01:49:28.851Z,101809.22
2023-05-08T01:52:05.633Z,101815.31
2023-05-08T01:54:59.322Z,101811.00
2023-05-08T01:57:30.269Z,101817.88
2023-05-08T02:00:01.488Z,101815.25
2023-05-08T02:02:35.045Z,101817.00
2023-05-08T02:05:05.717Z,101818.72
2023-05-08T02:07:38.315Z,101823.03
2023-05-08T02:10:08.689Z,101816.16
2023-05-08T02:12:38.599Z,101822.19
2023-05-08T02:15:09.661Z,101828.22
2023-05-08T02:17:41.266Z,101825.59
2023-05-08T02:20:15.683Z,101834.22
2023-05-08T02:22:45.872Z,101827.31
2023-05-08T02:25:16.576Z,101831.62
2023-05-08T02:27:47.224Z,101841.06
2023-05-08T02:30:17.930Z,101832.47
2023-05-08T02:32:48.421Z,101847.97
2023-05-08T02:35:19.136Z,101844.53
2023-05-08T02:37:52.269Z,101847.09
2023-05-08T02:40:25.519Z,101840.19
2023-05-08T02:42:53.989Z,101852.25
2023-05-08T02:45:27.642Z,101856.50
2023-05-08T02:48:16.220Z,101852.22
2023-05-08T02:51:07.550Z,101855.56
2023-05-08T02:53:41.483Z,101860.69
2023-05-08T02:56:19.145Z,101864.09
2023-05-08T02:59:00.288Z,101854.63
2023-05-08T03:01:54.644Z,101859.75
2023-05-08T03:04:30.226Z,101861.44
2023-05-08T03:06:59.459Z,101859.72
2023-05-08T03:09:39.375Z,101870.16
2023-05-08T03:12:13.365Z,101858.91
2023-05-08T03:14:53.280Z,101859.63
2023-05-08T03:17:23.442Z,101864.69
2023-05-08T03:19:58.445Z,101868.22
2023-05-08T03:22:30.715Z,101868.06
2023-05-08T03:25:02.909Z,101869.62
2023-05-08T03:27:33.976Z,101883.22
2023-05-08T03:30:02.757Z,101885.72
2023-05-08T03:32:35.911Z,101875.13
2023-05-08T03:35:05.911Z,101878.50
2023-05-08T03:37:34.366Z,101877.41
2023-05-08T03:40:02.660Z,101886.69
2023-05-08T03:42:31.983Z,101885.56
2023-05-08T03:45:03.342Z,101881.06
2023-05-08T03:47:33.603Z,101881.66
2023-05-08T03:50:02.301Z,101881.31
2023-05-08T03:52:32.959Z,101882.62
2023-05-08T03:55:02.090Z,101883.94
2023-05-08T03:57:45.240Z,101888.66
2023-05-08T04:00:35.045Z,101883.78
2023-05-08T04:03:28.182Z,101888.13
2023-05-08T04:06:17.867Z,101885.19
2023-05-08T04:08:54.634Z,101880.63
2023-05-08T04:11:34.564Z,101877.25
2023-05-08T04:14:08.087Z,101892.13
2023-05-08T04:16:39.146Z,101890.87
2023-05-08T04:19:15.956Z,101893.31
2023-05-08T04:21:45.083Z,101885.34
2023-05-08T04:24:16.313Z,101876.16
2023-05-08T04:26:46.166Z,101895.03
2023-05-08T04:29:15.063Z,101882.50
2023-05-08T04:31:44.599Z,101869.28
2023-05-08T04:34:13.263Z,101888.59
2023-05-08T04:36:41.789Z,101876.22
2023-05-08T04:39:10.670Z,101880.97
2023-05-08T04:41:38.884Z,101879.16
2023-05-08T04:44:07.286Z,101882.97
2023-05-08T04:46:35.719Z,101882.00
2023-05-08T04:49:03.889Z,101871.41
2023-05-08T04:51:32.377Z,101878.28
2023-05-08T04:54:00.712Z,101878.66
2023-05-08T04:56:28.910Z,101872.16
2023-05-08T04:58:57.380Z,101879.25
2023-05-08T05:01:25.537Z,101880.00
2023-05-08T05:03:53.643Z,101876.66
2023-05-08T05:06:22.247Z,101877.94
2023-05-08T05:08:50.192Z,101881.59
2023-05-08T05:11:18.590Z,101887.03
2023-05-08T05:13:47.004Z,101884.84
2023-05-08T05:16:14.993Z,101893.78
2023-05-08T05:18:43.073Z,101894.56
2023-05-08T05:21:11.869Z,101888.53
2023-05-08T05:23:39.934Z,101888.13
2023-05-08T05:26:08.426Z,101893.16
2023-05-08T05:28:36.959Z,101894.59
2023-05-08T05:31:05.436Z,101886.97
2023-05-08T05:33:33.745Z,101889.28
2023-05-08T05:36:02.785Z,101888.38
2023-05-08T05:38:30.787Z,101888.69
2023-05-08T05:40:58.769Z,101888.16
2023-05-08T05:43:27.360Z,101888.22
2023-05-08T05:45:56.650Z,101878.28
2023-05-08T05:48:25.184Z,101873.75
2023-05-08T05:50:53.718Z,101871.97
2023-05-08T05:53:22.216Z,101860.06
2023-05-08T05:55:53.950Z,101881.91
2023-05-08T05:58:22.953Z,101876.56
2023-05-08T06:00:51.932Z,101878.16
2023-05-08T06:03:20.553Z,101875.00
2023-05-08T06:05:48.812Z,101880.59
2023-05-08T06:08:18.303Z,101888.03
2023-05-08T06:10:47.295Z,101884.16
2023-05-08T06:13:15.997Z,101892.53
2023-05-08T06:15:44.693Z,101879.94
2023-05-08T06:18:14.169Z,101878.69
2023-05-08T06:20:42.508Z,101875.53
2023-05-08T06:23:10.796Z,101875.19
2023-05-08T06:25:39.462Z,101871.34
2023-05-08T06:28:08.560Z,101872.91
2023-05-08T06:30:36.764Z,101879.59
2023-05-08T06:33:05.407Z,101857.56
2023-05-08T06:35:33.735Z,101887.53
2023-05-08T06:38:02.280Z,101874.97
2023-05-08T06:40:30.891Z,101880.00
2023-05-08T06:42:59.049Z,101876.91
2023-05-08T06:45:27.548Z,101873.25
2023-05-08T06:47:56.110Z,101868.50
2023-05-08T06:50:24.227Z,101866.41
2023-05-08T06:52:52.136Z,101864.50
2023-05-08T06:55:20.629Z,101859.25
2023-05-08T06:57:48.695Z,101866.75
2023-05-08T07:00:17.044Z,101860.75
2023-05-08T07:02:45.597Z,101861.91
2023-05-08T07:05:13.983Z,101849.00
2023-05-08T07:07:43.110Z,101852.06
2023-05-08T07:10:11.752Z,101856.16
2023-05-08T07:12:52.055Z,101857.28
2023-05-08T07:15:26.496Z,101863.00
2023-05-08T07:17:55.305Z,101864.00
2023-05-08T07:20:33.155Z,101860.87
2023-05-08T07:23:01.869Z,101854.19
2023-05-08T07:25:47.696Z,101856.78
2023-05-08T07:28:32.785Z,101855.50
2023-05-08T07:31:07.775Z,101847.41
2023-05-08T07:33:48.838Z,101852.72
2023-05-08T07:36:17.445Z,101865.28
2023-05-08T07:38:46.120Z,101858.81
2023-05-08T07:41:17.604Z,101868.88
2023-05-08T07:43:58.735Z,101865.19
2023-05-08T07:46:27.058Z,101857.69
2023-05-08T07:49:07.821Z,101851.41
2023-05-08T07:51:36.100Z,101857.63
2023-05-08T07:54:04.274Z,101855.66
2023-05-08T07:56:32.909Z,101853.41
2023-05-08T07:59:01.102Z,101848.81
2023-05-08T08:01:29.608Z,101842.38
2023-05-08T08:04:01.478Z,101843.87
2023-05-08T08:06:29.926Z,101844.34
2023-05-08T08:08:58.737Z,101840.19
2023-05-08T08:11:26.752Z,101848.47
2023-05-08T08:14:07.050Z,101841.31
2023-05-08T08:16:35.468Z,101849.88
2023-05-08T08:19:03.980Z,101857.37
2023-05-08T08:21:32.016Z,101855.94
2023-05-08T08:24:00.834Z,101841.56
2023-05-08T08:26:29.423Z,101843.94
2023-05-08T08:28:57.752Z,101844.44
2023-05-08T08:31:26.324Z,101855.00
2023-05-08T08:34:06.927Z,101857.13
2023-05-08T08:39:33.988Z,101846.81
2023-05-08T08:42:10.074Z,101841.19
2023-05-08T08:44:45.145Z,101851.94
2023-05-08T08:47:30.179Z,101843.13
2023-05-08T08:50:03.721Z,101842.56
2023-05-08T08:52:41.071Z,101847.53
2023-05-08T08:55:17.264Z,101841.75
2023-05-08T08:58:14.656Z,101836.84
2023-05-08T09:00:43.752Z,101841.44
2023-05-08T09:03:12.726Z,101826.91
2023-05-08T09:05:41.587Z,101823.19
2023-05-08T09:08:11.187Z,101819.94
2023-05-08T09:10:39.935Z,101830.81
2023-05-08T09:13:17.413Z,101830.69
2023-05-08T09:15:51.162Z,101819.72
2023-05-08T09:21:09.288Z,101820.31
2023-05-08T09:24:18.275Z,101818.53
2023-05-08T09:27:08.713Z,101824.84
2023-05-08T09:29:39.590Z,101822.31
2023-05-08T09:37:44.212Z,101808.25
2023-05-08T09:40:22.689Z,101817.63
2023-05-08T09:42:51.587Z,101813.91
2023-05-08T09:45:49.723Z,101805.84
2023-05-08T09:48:40.240Z,101794.69
2023-05-08T09:51:08.746Z,101797.66
2023-05-08T09:53:42.165Z,101790.53
2023-05-08T09:56:10.475Z,101779.69
2023-05-08T09:58:41.463Z,101774.38
2023-05-08T10:01:35.210Z,101773.69
2023-05-08T10:04:06.370Z,101797.19
2023-05-08T10:06:36.864Z,101779.41
2023-05-08T10:09:15.975Z,101777.19
2023-05-08T10:11:53.983Z,101781.31
2023-05-08T10:14:27.236Z,101784.34
2023-05-08T10:16:55.809Z,101792.38
2023-05-08T10:19:29.010Z,101792.44
2023-05-08T10:24:47.531Z,101781.19
2023-05-08T10:28:11.436Z,101793.00
2023-05-08T10:30:51.051Z,101786.22
2023-05-08T10:33:25.296Z,101790.94
2023-05-08T10:35:57.429Z,101786.22
2023-05-08T10:38:26.735Z,101793.16
2023-05-08T10:40:58.421Z,101787.94
2023-05-08T10:43:29.074Z,101788.97
2023-05-08T10:45:59.416Z,101794.91
2023-05-08T10:48:39.682Z,101787.19
2023-05-08T10:51:22.736Z,101787.13
2023-05-08T10:54:08.911Z,101779.94
2023-05-08T10:56:39.990Z,101777.66
2023-05-08T10:59:21.514Z,101774.25
2023-05-08T11:01:50.956Z,101769.47
2023-05-08T11:04:24.744Z,101773.50
2023-05-08T11:06:53.875Z,101770.75
2023-05-08T11:09:44.106Z,101760.00
2023-05-08T11:12:26.221Z,101750.59
2023-05-08T11:15:07.047Z,101748.63
2023-05-08T11:17:35.903Z,101756.78
2023-05-08T11:20:07.371Z,101758.41
2023-05-08T11:22:37.504Z,101763.06
2023-05-08T11:25:14.844Z,101766.88
2023-05-08T11:28:06.837Z,101766.56
2023-05-08T11:30:39.909Z,101759.34
2023-05-08T11:33:11.502Z,101759.16
2023-05-08T11:35:57.453Z,101761.28
2023-05-08T11:38:28.644Z,101766.84
2023-05-08T11:40:58.961Z,101766.53
2023-05-08T11:43:34.053Z,101771.31
2023-05-08T11:46:20.725Z,101769.09
2023-05-08T11:48:50.216Z,101769.31
2023-05-08T11:51:20.571Z,101760.78
2023-05-08T11:53:48.961Z,101766.16
2023-05-08T11:56:20.793Z,101764.06
2023-05-08T11:58:49.032Z,101763.75
2023-05-08T12:01:21.386Z,101759.06
2023-05-08T12:03:50.183Z,101751.69
2023-05-08T12:06:19.828Z,101758.91
2023-05-08T12:08:48.183Z,101756.38
2023-05-08T12:11:24.691Z,101756.91
2023-05-08T12:13:54.274Z,101769.09
2023-05-08T12:16:26.649Z,101746.59
2023-05-08T12:18:57.359Z,101758.50
2023-05-08T12:21:25.933Z,101757.81
2023-05-08T12:23:56.647Z,101754.63
2023-05-08T12:26:25.045Z,101753.91
2023-05-08T12:28:58.115Z,101733.25
2023-05-08T12:31:29.429Z,101757.50
2023-05-08T12:33:58.568Z,101758.03
2023-05-08T12:36:27.641Z,101748.00
2023-05-08T12:39:13.311Z,101748.75
2023-05-08T12:41:52.255Z,101739.53
2023-05-08T12:44:22.732Z,101740.59
2023-05-08T12:46:57.110Z,101744.09
2023-05-08T12:49:30.935Z,101729.88
2023-05-08T12:52:08.477Z,101728.37
2023-05-08T12:54:41.705Z,101731.16
2023-05-08T12:57:22.743Z,101729.06
2023-05-08T13:00:12.629Z,101723.66
2023-05-08T13:02:54.208Z,101730.19
2023-05-08T13:05:24.278Z,101735.25
2023-05-08T13:07:52.891Z,101734.78
2023-05-08T13:10:23.956Z,101727.47
2023-05-08T13:12:53.614Z,101732.69
2023-05-08T13:15:21.679Z,101731.91
2023-05-08T13:17:50.181Z,101727.34
2023-05-08T13:20:18.744Z,101732.22
2023-05-08T13:22:46.795Z,101721.44
2023-05-08T13:25:15.587Z,101729.84
2023-05-08T13:27:44.560Z,101718.41
2023-05-08T13:30:15.876Z,101712.00
2023-05-08T13:32:51.824Z,101722.47
2023-05-08T13:38:06.995Z,101716.91
2023-05-08T13:40:35.550Z,101715.03
2023-05-08T13:43:03.865Z,101722.72
2023-05-08T13:45:33.524Z,101731.84
2023-05-08T13:48:02.023Z,101732.38
2023-05-08T13:50:41.611Z,101725.59
2023-05-08T13:56:03.632Z,101722.91
2023-05-08T13:58:48.445Z,101717.81
2023-05-08T14:01:26.313Z,101720.28
2023-05-08T14:03:58.165Z,101717.47
2023-05-08T14:06:27.262Z,101725.25
2023-05-08T14:08:57.168Z,101717.16
2023-05-08T14:14:12.079Z,101724.66
2023-05-08T14:16:40.488Z,101719.81
2023-05-08T14:19:08.955Z,101709.66
2023-05-08T14:21:38.028Z,101708.22
2023-05-08T14:24:08.511Z,101714.44
2023-05-08T14:29:23.333Z,101710.44
2023-05-08T14:31:52.791Z,101717.56
2023-05-08T14:34:35.437Z,101709.13
2023-05-08T14:37:11.187Z,101707.44
2023-05-08T14:39:39.983Z,101717.94
2023-05-08T14:44:54.526Z,101713.72
2023-05-08T14:47:24.636Z,101705.19
2023-05-08T14:49:56.646Z,101709.34
2023-05-08T14:52:25.603Z,101717.66
2023-05-08T14:54:56.699Z,101712.25
2023-05-08T14:57:41.642Z,101710.66
2023-05-08T15:00:21.840Z,101711.63
2023-05-08T15:02:50.948Z,101705.72
2023-05-08T15:05:20.503Z,101674.69
2023-05-08T15:07:50.600Z,101706.31
2023-05-08T15:10:30.965Z,101697.72
2023-05-08T15:13:02.254Z,101702.50
2023-05-08T15:15:31.376Z,101701.75
2023-05-08T15:18:00.410Z,101704.03
2023-05-08T15:20:29.259Z,101699.88
2023-05-08T15:22:58.124Z,101699.84
2023-05-08T15:25:26.493Z,101688.53
2023-05-08T15:31:08.642Z,101699.25
2023-05-08T15:36:23.260Z,101698.13
2023-05-08T15:38:51.585Z,101705.47
2023-05-08T15:41:27.215Z,101690.00
2023-05-08T15:43:55.748Z,101703.16
2023-05-08T15:46:23.780Z,101700.28
2023-05-08T15:48:54.230Z,101695.78
2023-05-08T15:51:22.967Z,101694.69
2023-05-08T15:53:52.887Z,101682.59
2023-05-08T15:59:10.779Z,101686.06
2023-05-08T16:01:39.562Z,101688.31
2023-05-08T16:04:11.176Z,101693.00
2023-05-08T16:06:39.443Z,101692.22
2023-05-08T16:09:08.428Z,101684.34
2023-05-08T16:11:37.074Z,101686.22
2023-05-08T16:14:05.328Z,101694.59
2023-05-08T16:16:33.993Z,101703.31
2023-05-08T16:19:02.155Z,101702.94
2023-05-08T16:21:30.393Z,101698.31
2023-05-08T16:23:59.051Z,101705.03
2023-05-08T16:26:27.387Z,101705.88
2023-05-08T16:28:55.848Z,101710.12
2023-05-08T16:31:24.733Z,101708.88
2023-05-08T16:36:39.469Z,101707.03
2023-05-08T16:39:08.318Z,101706.69
2023-05-08T16:41:36.828Z,101706.56
2023-05-08T16:44:05.883Z,101712.13
2023-05-08T16:46:34.800Z,101715.72
2023-05-08T16:49:02.924Z,101718.53
2023-05-08T16:51:32.752Z,101712.41
2023-05-08T16:54:01.255Z,101716.94
2023-05-08T16:56:29.382Z,101714.97
2023-05-08T16:58:58.717Z,101719.97
2023-05-08T17:01:29.410Z,101724.38
2023-05-08T17:04:00.668Z,101723.62
2023-05-08T17:06:28.928Z,101726.81
2023-05-08T17:08:57.803Z,101725.22
2023-05-08T17:11:26.375Z,101722.78
2023-05-08T17:13:54.571Z,101720.56
2023-05-08T17:16:23.680Z,101727.50
2023-05-08T17:18:51.905Z,101726.13
2023-05-08T17:21:20.377Z,101737.84
2023-05-08T17:23:49.889Z,101733.25
2023-05-08T17:26:18.795Z,101746.06
2023-05-08T17:28:47.148Z,101731.13
2023-05-08T17:31:16.282Z,101746.38
2023-05-08T17:33:44.271Z,101741.56
2023-05-08T17:36:12.682Z,101752.53
2023-05-08T17:38:46.249Z,101740.22
2023-05-08T17:41:14.860Z,101753.62
2023-05-08T17:43:43.584Z,101757.78
2023-05-08T17:46:17.985Z,101751.44
2023-05-08T17:48:49.795Z,101759.91
2023-05-08T17:51:18.654Z,101762.53
2023-05-08T17:53:47.614Z,101762.41
2023-05-08T17:56:20.979Z,101773.97
2023-05-08T17:58:51.046Z,101775.13
2023-05-08T18:01:21.481Z,101781.09
2023-05-08T18:03:52.946Z,101778.94
2023-05-08T18:06:22.039Z,101766.03
2023-05-08T18:08:50.605Z,101765.41
2023-05-08T18:11:24.302Z,101770.88
2023-05-08T18:13:57.267Z,101765.75
2023-05-08T18:16:26.004Z,101769.56
2023-05-08T18:18:55.442Z,101777.44
2023-05-08T18:21:25.133Z,101780.91
2023-05-08T18:23:54.541Z,101785.47
2023-05-08T18:26:23.607Z,101792.44
2023-05-08T18:28:52.944Z,101785.16
2023-05-08T18:31:21.583Z,101786.16
2023-05-08T18:33:51.651Z,101774.03
2023-05-08T18:36:21.213Z,101792.47
2023-05-08T18:38:50.332Z,101788.97
2023-05-08T18:41:19.090Z,101789.75
2023-05-08T18:43:51.388Z,101798.38
2023-05-08T18:46:20.639Z,101783.50
2023-05-08T18:48:49.918Z,101787.44
2023-05-08T18:51:19.592Z,101799.66
2023-05-08T18:54:43.903Z,101796.50
2023-05-08T19:00:06.981Z,101798.22
2023-05-08T19:02:35.300Z,101799.81
2023-05-08T19:05:03.633Z,101807.28
2023-05-08T19:07:32.363Z,101804.09
2023-05-08T19:10:00.782Z,101801.38
2023-05-08T19:12:29.611Z,101806.75
2023-05-08T19:14:58.366Z,101804.25
2023-05-08T19:17:26.401Z,101807.47
2023-05-08T19:19:55.255Z,101806.06
2023-05-08T19:22:23.959Z,101807.31
2023-05-08T19:24:52.185Z,101811.47
2023-05-08T19:27:20.463Z,101817.69
2023-05-08T19:29:49.028Z,101817.75
2023-05-08T19:32:17.289Z,101825.44
2023-05-08T19:34:45.466Z,101827.31
2023-05-08T19:37:17.334Z,101819.06
2023-05-08T19:39:48.821Z,101821.81
2023-05-08T19:42:17.334Z,101818.34
2023-05-08T19:44:45.652Z,101826.09
2023-05-08T19:47:14.704Z,101825.03
2023-05-08T19:49:43.666Z,101826.03
2023-05-08T19:52:12.243Z,101814.84
2023-05-08T19:54:40.363Z,101825.50
2023-05-08T19:57:08.991Z,101821.97
2023-05-08T19:59:37.635Z,101823.31
2023-05-08T20:02:08.753Z,101828.00
2023-05-08T20:04:48.629Z,101821.22
2023-05-08T20:07:25.180Z,101821.62
2023-05-08T20:09:53.742Z,101816.31
2023-05-08T20:12:21.953Z,101825.00
2023-05-08T20:14:50.239Z,101833.41
2023-05-08T20:17:18.798Z,101827.22
2023-05-08T20:19:47.049Z,101832.00
2023-05-08T20:22:15.210Z,101834.44
2023-05-08T20:24:43.459Z,101831.69
2023-05-08T20:27:11.698Z,101826.56
2023-05-08T20:29:39.875Z,101831.25
2023-05-08T20:32:08.561Z,101829.19
2023-05-08T20:34:36.643Z,101834.06
2023-05-08T20:37:04.651Z,101839.31
2023-05-08T20:39:33.041Z,101835.53
2023-05-08T20:42:01.118Z,101829.00
2023-05-08T20:44:28.966Z,101835.53
2023-05-08T20:46:57.197Z,101829.72
2023-05-08T20:49:25.379Z,101831.75
2023-05-08T20:51:53.350Z,101838.62
2023-05-08T20:54:21.838Z,101838.47
2023-05-08T20:56:50.153Z,101844.47
2023-05-08T20:59:19.104Z,101847.25
2023-05-08T21:01:48.697Z,101844.66
2023-05-08T21:04:17.008Z,101845.56
2023-05-08T21:06:45.039Z,101847.16
2023-05-08T21:09:13.454Z,101845.84
2023-05-08T21:11:41.494Z,101837.25
2023-05-08T21:14:09.605Z,101843.13
2023-05-08T21:16:38.233Z,101833.94
2023-05-08T21:19:06.338Z,101849.94
2023-05-08T21:21:35.455Z,101846.44
2023-05-08T21:24:04.635Z,101838.84
2023-05-08T21:26:32.645Z,101850.28
2023-05-08T21:29:00.900Z,101850.87
2023-05-08T21:31:29.398Z,101848.78
2023-05-08T21:33:57.664Z,101851.97
2023-05-08T21:36:25.803Z,101845.22
2023-05-08T21:38:54.204Z,101848.81
2023-05-08T21:41:22.737Z,101850.84
2023-05-08T21:43:51.068Z,101848.41
2023-05-08T21:46:19.363Z,101840.63
2023-05-08T21:48:47.423Z,101841.56
2023-05-08T21:51:15.383Z,101845.91
2023-05-08T21:53:43.635Z,101845.09
2023-05-08T21:56:11.434Z,101843.34
2023-05-08T21:58:39.352Z,101855.41
2023-05-08T22:01:07.741Z,101848.38
2023-05-08T22:03:36.159Z,101844.47
2023-05-08T22:06:04.346Z,101848.72
2023-05-08T22:08:32.390Z,101837.72
2023-05-08T22:11:00.983Z,101848.50
2023-05-08T22:13:30.935Z,101826.16
2023-05-08T22:15:59.059Z,101850.56
2023-05-08T22:18:27.423Z,101853.53
2023-05-08T22:20:55.576Z,101855.03
2023-05-08T22:23:23.513Z,101858.53
2023-05-08T22:25:52.097Z,101859.44
2023-05-08T22:28:20.163Z,101853.59
2023-05-08T22:30:48.195Z,101858.62
2023-05-08T22:33:16.664Z,101846.84
2023-05-08T22:35:44.694Z,101858.28
2023-05-08T22:38:12.715Z,101852.62
2023-05-08T22:40:42.761Z,101831.25
2023-05-08T22:43:10.918Z,101865.56
2023-05-08T22:45:39.057Z,101863.19
2023-05-08T22:48:07.834Z,101868.50
2023-05-08T22:50:37.023Z,101871.22
2023-05-08T22:53:08.832Z,101857.59
2023-05-08T22:55:37.861Z,101847.41
2023-05-08T22:58:05.894Z,101862.88
2023-05-08T23:00:33.904Z,101860.28
2023-05-08T23:03:02.454Z,101860.41
2023-05-08T23:05:30.488Z,101869.94
2023-05-08T23:07:58.555Z,101862.19
2023-05-08T23:10:27.055Z,101866.56
2023-05-08T23:12:54.940Z,101869.19
2023-05-08T23:15:22.908Z,101874.34
2023-05-08T23:17:51.323Z,101866.63
2023-05-08T23:20:19.508Z,101866.63
2023-05-08T23:22:47.565Z,101870.97
2023-05-08T23:25:16.164Z,101875.28
2023-05-08T23:27:44.289Z,101877.09
2023-05-08T23:30:13.577Z,101881.50
2023-05-08T23:32:42.025Z,101886.72
2023-05-08T23:35:11.044Z,101878.06
2023-05-08T23:37:39.125Z,101879.81
2023-05-08T23:40:08.231Z,101871.09
2023-05-08T23:42:37.539Z,101882.25
2023-05-08T23:45:06.651Z,101877.09
2023-05-08T23:47:34.894Z,101874.53
2023-05-08T23:50:02.987Z,101883.94
2023-05-08T23:52:32.270Z,101875.25
2023-05-08T23:55:01.717Z,101885.62
2023-05-08T23:57:31.850Z,101870.75
